sensor_id;sensor_type;location;lat;lon;timestamp;pressure;altitude;pressure_sealevel;temperature;humidity
13734;BME280;43298;52.560;13.508;2023-02-20T00:01:29;101533.41;;;3.06;100.00
13734;BME280;43298;52.560;13.508;2023-02-20T00:03:56;101541.94;;;3.17;100.00
13734;BME280;43298;52.560;13.508;2023-02-20T00:06:22;101551.31;;;3.13;100.00
13734;BME280;43298;52.560;13.508;2023-02-20T00:08:47;101543.63;;;3.04;100.00
13734;BME280;43298;52.560;13.508;2023-02-20T00:11:13;101538.53;;;3.07;100.00
13734;BME280;43298;52.560;13.508;2023-02-20T00:13:48;101539.38;;;3.12;100.00
13734;BME280;43298;52.560;13.508;2023-02-20T00:16:14;101530.03;;;3.17;100.00
13734;BME280;43298;52.560;13.508;2023-02-20T00:18:40;101533.41;;;3.19;100.00
13734;BME280;43298;52.560;13.508;2023-02-20T00:21:06;101526.63;;;3.23;100.00
13734;BME280;43298;52.560;13.508;2023-02-20T00:23:32;101532.59;;;3.19;100.00
13734;BME280;43298;52.560;13.508;2023-02-20T00:25:58;101526.59;;;3.14;100.00
13734;BME280;43298;52.560;13.508;2023-02-20T00:28:24;101522.34;;;3.22;100.00
13734;BME280;43298;52.560;13.508;2023-02-20T00:30:50;101512.97;;;3.18;100.00
13734;BME280;43298;52.560;13.508;2023-02-20T00:33:16;101513.84;;;3.14;100.00
13734;BME280;43298;52.560;13.508;2023-02-20T00:35:42;101507.03;;;3.01;100.00
13734;BME280;43298;52.560;13.508;2023-02-20T00:38:08;101512.13;;;2.99;100.00
13734;BME280;43298;52.560;13.508;2023-02-20T00:40:33;101507.88;;;3.07;100.00
13734;BME280;43298;52.560;13.508;2023-02-20T00:42:59;101510.41;;;3.00;100.00
13734;BME280;43298;52.560;13.508;2023-02-20T00:45:25;101500.19;;;2.89;100.00
13734;BME280;43298;52.560;13.508;2023-02-20T00:47:51;101504.44;;;2.89;100.00
13734;BME280;43298;52.560;13.508;2023-02-20T00:50:17;101493.38;;;2.91;100.00
13734;BME280;43298;52.560;13.508;2023-02-20T00:52:43;101501.03;;;2.97;100.00
13734;BME280;43298;52.560;13.508;2023-02-20T00:55:09;101495.94;;;2.94;100.00
13734;BME280;43298;52.560;13.508;2023-02-20T00:57:35;101496.81;;;2.98;100.00
13734;BME280;43298;52.560;13.508;2023-02-20T01:00:01;101484.88;;;2.89;100.00
13734;BME280;43298;52.560;13.508;2023-02-20T01:02:27;101485.72;;;2.97;100.00
13734;BME280;43298;52.560;13.508;2023-02-20T01:04:52;101479.78;;;2.92;100.00
13734;BME280;43298;52.560;13.508;2023-02-20T01:07:18;101482.31;;;2.98;100.00
13734;BME280;43298;52.560;13.508;2023-02-20T01:09:44;101482.34;;;3.09;100.00
13734;BME280;43298;52.560;13.508;2023-02-20T01:12:10;101483.19;;;3.20;100.00
13734;BME280;43298;52.560;13.508;2023-02-20T01:14:36;101484.88;;;3.29;100.00
13734;BME280;43298;52.560;13.508;2023-02-20T01:17:02;101464.44;;;3.29;100.00
13734;BME280;43298;52.560;13.508;2023-02-20T01:19:28;101460.19;;;3.38;100.00
13734;BME280;43298;52.560;13.508;2023-02-20T01:21:53;101461.88;;;3.48;100.00
13734;BME280;43298;52.560;13.508;2023-02-20T01:24:19;101466.13;;;3.48;100.00
13734;BME280;43298;52.560;13.508;2023-02-20T01:26:47;101457.59;;;3.47;100.00
13734;BME280;43298;52.560;13.508;2023-02-20T01:29:14;101454.19;;;3.53;100.00
13734;BME280;43298;52.560;13.508;2023-02-20T01:31:39;101448.19;;;3.60;100.00
13734;BME280;43298;52.560;13.508;2023-02-20T01:34:10;101435.41;;;3.63;100.00
13734;BME280;43298;52.560;13.508;2023-02-20T01:36:36;101429.47;;;3.62;100.00
13734;BME280;43298;52.560;13.508;2023-02-20T01:39:02;101418.38;;;3.71;100.00
13734;BME280;43298;52.560;13.508;2023-02-20T01:41:28;101420.88;;;3.74;100.00
13734;BME280;43298;52.560;13.508;2023-02-20T01:43:54;101428.56;;;3.77;100.00
13734;BME280;43298;52.560;13.508;2023-02-20T01:49:04;101420.88;;;3.77;100.00
13734;BME280;43298;52.560;13.508;2023-02-20T01:51:35;101399.59;;;3.75;100.00
13734;BME280;43298;52.560;13.508;2023-02-20T01:54:06;101383.38;;;3.71;100.00
13734;BME280;43298;52.560;13.508;2023-02-20T01:56:33;101373.16;;;3.68;100.00
13734;BME280;43298;52.560;13.508;2023-02-20T01:58:59;101371.47;;;3.63;100.00
13734;BME280;43298;52.560;13.508;2023-02-20T02:01:25;101363.84;;;3.57;100.00
13734;BME280;43298;52.560;13.508;2023-02-20T02:03:57;101364.72;;;3.53;100.00
13734;BME280;43298;52.560;13.508;2023-02-20T02:06:24;101355.38;;;3.46;100.00
13734;BME280;43298;52.560;13.508;2023-02-20T02:08:51;101360.50;;;3.44;100.00
13734;BME280;43298;52.560;13.508;2023-02-20T02:11:22;101361.31;;;3.43;100.00
13734;BME280;43298;52.560;13.508;2023-02-20T02:13:49;101361.31;;;3.45;100.00
13734;BME280;43298;52.560;13.508;2023-02-20T02:16:34;101361.31;;;3.48;100.00
13734;BME280;43298;52.560;13.508;2023-02-20T02:25:40;101365.56;;;3.50;100.00
13734;BME280;43298;52.560;13.508;2023-02-20T02:28:44;101353.63;;;3.51;100.00
13734;BME280;43298;52.560;13.508;2023-02-20T02:40:41;101338.97;;;3.93;100.00
13734;BME280;43298;52.560;13.508;2023-02-20T02:43:26;101337.22;;;4.03;100.00
13734;BME280;43298;52.560;13.508;2023-02-20T02:46:19;101315.88;;;4.08;100.00
13734;BME280;43298;52.560;13.508;2023-02-20T02:51:54;101315.75;;;4.28;100.00
13734;BME280;43298;52.560;13.508;2023-02-20T02:54:25;101312.31;;;4.29;100.00
13734;BME280;43298;52.560;13.508;2023-02-20T02:56:52;101306.25;;;4.42;100.00
13734;BME280;43298;52.560;13.508;2023-02-20T02:59:31;101288.28;;;4.45;100.00
13734;BME280;43298;52.560;13.508;2023-02-20T03:02:02;101295.03;;;4.55;100.00
13734;BME280;43298;52.560;13.508;2023-02-20T03:04:30;101294.22;;;4.51;100.00
13734;BME280;43298;52.560;13.508;2023-02-20T03:07:11;101285.69;;;4.51;100.00
13734;BME280;43298;52.560;13.508;2023-02-20T03:10:04;101281.41;;;4.54;100.00
13734;BME280;43298;52.560;13.508;2023-02-20T03:12:33;101278.72;;;4.68;100.00
13734;BME280;43298;52.560;13.508;2023-02-20T03:15:05;101270.13;;;4.72;100.00
13734;BME280;43298;52.560;13.508;2023-02-20T03:20:53;101265.69;;;4.90;100.00
13734;BME280;43298;52.560;13.508;2023-02-20T03:23:26;101253.72;;;4.88;100.00
13734;BME280;43298;52.560;13.508;2023-02-20T03:26:02;101259.69;;;4.90;100.00
13734;BME280;43298;52.560;13.508;2023-02-20T03:29:05;101257.09;;;4.94;100.00
13734;BME280;43298;52.560;13.508;2023-02-20T03:31:42;101251.97;;;4.93;100.00
13734;BME280;43298;52.560;13.508;2023-02-20T03:34:21;101234.03;;;4.93;100.00
13734;BME280;43298;52.560;13.508;2023-02-20T03:37:19;101235.69;;;4.98;100.00
13734;BME280;43298;52.560;13.508;2023-02-20T03:40:11;101220.28;;;5.01;100.00
13734;BME280;43298;52.560;13.508;2023-02-20T03:43:02;101221.19;;;4.99;100.00
13734;BME280;43298;52.560;13.508;2023-02-20T03:45:47;101212.59;;;5.03;100.00
13734;BME280;43298;52.560;13.508;2023-02-20T03:48:30;101216.78;;;5.08;100.00
13734;BME280;43298;52.560;13.508;2023-02-20T03:50:57;101227.81;;;5.15;100.00
13734;BME280;43298;52.560;13.508;2023-02-20T03:53:23;101226.94;;;5.14;100.00
13734;BME280;43298;52.560;13.508;2023-02-20T03:55:51;101243.13;;;5.21;100.00
13734;BME280;43298;52.560;13.508;2023-02-20T03:58:22;101253.28;;;5.27;100.00
13734;BME280;43298;52.560;13.508;2023-02-20T04:00:52;101238.75;;;5.27;100.00
13734;BME280;43298;52.560;13.508;2023-02-20T04:03:27;101229.38;;;5.28;100.00
13734;BME280;43298;52.560;13.508;2023-02-20T04:05:56;101229.34;;;5.29;100.00
13734;BME280;43298;52.560;13.508;2023-02-20T04:08:31;101234.50;;;5.28;100.00
13734;BME280;43298;52.560;13.508;2023-02-20T04:13:50;101224.25;;;5.28;100.00
13734;BME280;43298;52.560;13.508;2023-02-20T04:16:18;101212.25;;;5.28;100.00
13734;BME280;43298;52.560;13.508;2023-02-20T04:18:44;101208.75;;;5.35;100.00
13734;BME280;43298;52.560;13.508;2023-02-20T04:21:34;101211.34;;;5.32;100.00
13734;BME280;43298;52.560;13.508;2023-02-20T04:24:12;101216.44;;;5.35;100.00
13734;BME280;43298;52.560;13.508;2023-02-20T04:26:41;101205.34;;;5.36;100.00
13734;BME280;43298;52.560;13.508;2023-02-20T04:29:07;101197.56;;;5.41;100.00
13734;BME280;43298;52.560;13.508;2023-02-20T04:31:33;101198.47;;;5.37;100.00
13734;BME280;43298;52.560;13.508;2023-02-20T04:33:59;101192.44;;;5.41;100.00
13734;BME280;43298;52.560;13.508;2023-02-20T04:36:26;101184.81;;;5.38;100.00
13734;BME280;43298;52.560;13.508;2023-02-20T04:38:52;101181.25;;;5.46;100.00
13734;BME280;43298;52.560;13.508;2023-02-20T04:41:17;101180.44;;;5.43;100.00
13734;BME280;43298;52.560;13.508;2023-02-20T04:43:43;101180.44;;;5.44;100.00
13734;BME280;43298;52.560;13.508;2023-02-20T04:46:09;101154.78;;;5.44;100.00
13734;BME280;43298;52.560;13.508;2023-02-20T04:48:35;101167.59;;;5.46;100.00
13734;BME280;43298;52.560;13.508;2023-02-20T04:51:01;101163.25;;;5.49;100.00
13734;BME280;43298;52.560;13.508;2023-02-20T04:53:27;101163.19;;;5.54;100.00
13734;BME280;43298;52.560;13.508;2023-02-20T04:55:53;101163.22;;;5.51;100.00
13734;BME280;43298;52.560;13.508;2023-02-20T04:58:18;101149.63;;;5.46;100.00
13734;BME280;43298;52.560;13.508;2023-02-20T05:00:44;101158.13;;;5.48;100.00
13734;BME280;43298;52.560;13.508;2023-02-20T05:03:10;101142.72;;;5.49;100.00
13734;BME280;43298;52.560;13.508;2023-02-20T05:05:36;101140.09;;;5.54;100.00
13734;BME280;43298;52.560;13.508;2023-02-20T05:08:05;101133.13;;;5.63;100.00
13734;BME280;43298;52.560;13.508;2023-02-20T05:10:33;101125.41;;;5.65;100.00
13734;BME280;43298;52.560;13.508;2023-02-20T05:12:59;101123.72;;;5.64;100.00
13734;BME280;43298;52.560;13.508;2023-02-20T05:15:26;101116.09;;;5.58;100.00
13734;BME280;43298;52.560;13.508;2023-02-20T05:17:52;101116.03;;;5.64;100.00
13734;BME280;43298;52.560;13.508;2023-02-20T05:20:18;101102.28;;;5.68;100.00
13734;BME280;43298;52.560;13.508;2023-02-20T05:22:46;101108.31;;;5.65;100.00
13734;BME280;43298;52.560;13.508;2023-02-20T05:25:13;101107.50;;;5.60;100.00
13734;BME280;43298;52.560;13.508;2023-02-20T05:27:39;101112.66;;;5.59;100.00
13734;BME280;43298;52.560;13.508;2023-02-20T05:30:07;101114.44;;;5.55;100.00
13734;BME280;43298;52.560;13.508;2023-02-20T05:32:33;101117.91;;;5.53;100.00
13734;BME280;43298;52.560;13.508;2023-02-20T05:34:59;101114.44;;;5.55;100.00
13734;BME280;43298;52.560;13.508;2023-02-20T05:37:26;101106.75;;;5.55;100.00
13734;BME280;43298;52.560;13.508;2023-02-20T05:39:52;101103.38;;;5.52;100.00
13734;BME280;43298;52.560;13.508;2023-02-20T05:42:19;101103.47;;;5.47;100.00
13734;BME280;43298;52.560;13.508;2023-02-20T05:44:46;101101.75;;;5.46;100.00
13734;BME280;43298;52.560;13.508;2023-02-20T05:47:15;101094.13;;;5.42;100.00
13734;BME280;43298;52.560;13.508;2023-02-20T05:49:40;101086.44;;;5.42;100.00
13734;BME280;43298;52.560;13.508;2023-02-20T05:52:06;101098.47;;;5.37;100.00
13734;BME280;43298;52.560;13.508;2023-02-20T05:54:37;101093.38;;;5.34;100.00
13734;BME280;43298;52.560;13.508;2023-02-20T05:57:04;101091.63;;;5.39;100.00
13734;BME280;43298;52.560;13.508;2023-02-20T05:59:30;101090.81;;;5.35;100.00
13734;BME280;43298;52.560;13.508;2023-02-20T06:01:58;101077.19;;;5.32;100.00
13734;BME280;43298;52.560;13.508;2023-02-20T06:04:25;101069.50;;;5.32;100.00
13734;BME280;43298;52.560;13.508;2023-02-20T06:06:50;101059.28;;;5.30;100.00
13734;BME280;43298;52.560;13.508;2023-02-20T06:09:16;101056.75;;;5.27;100.00
13734;BME280;43298;52.560;13.508;2023-02-20T06:11:52;101054.13;;;5.30;100.00
13734;BME280;43298;52.560;13.508;2023-02-20T06:14:21;101054.91;;;5.34;100.00
13734;BME280;43298;52.560;13.508;2023-02-20T06:16:47;101053.25;;;5.33;100.00
13734;BME280;43298;52.560;13.508;2023-02-20T06:19:21;101042.06;;;5.37;100.00
13734;BME280;43298;52.560;13.508;2023-02-20T06:21:49;101037.72;;;5.43;100.00
13734;BME280;43298;52.560;13.508;2023-02-20T06:24:16;101035.16;;;5.42;100.00
13734;BME280;43298;52.560;13.508;2023-02-20T06:26:42;101035.06;;;5.46;100.00
13734;BME280;43298;52.560;13.508;2023-02-20T06:29:09;101041.06;;;5.47;100.00
13734;BME280;43298;52.560;13.508;2023-02-20T06:31:35;101039.16;;;5.58;100.00
13734;BME280;43298;52.560;13.508;2023-02-20T06:34:01;101032.34;;;5.57;100.00
13734;BME280;43298;52.560;13.508;2023-02-20T06:36:30;101026.25;;;5.62;100.00
13734;BME280;43298;52.560;13.508;2023-02-20T06:38:58;101017.69;;;5.63;100.00
13734;BME280;43298;52.560;13.508;2023-02-20T06:41:24;101015.06;;;5.68;100.00
13734;BME280;43298;52.560;13.508;2023-02-20T06:43:51;101020.09;;;5.74;100.00
13734;BME280;43298;52.560;13.508;2023-02-20T06:46:16;101014.09;;;5.73;100.00
13734;BME280;43298;52.560;13.508;2023-02-20T06:48:48;101010.81;;;5.67;100.00
13734;BME280;43298;52.560;13.508;2023-02-20T06:51:19;101011.66;;;5.66;100.00
13734;BME280;43298;52.560;13.508;2023-02-20T06:53:46;100986.94;;;5.60;100.00
13734;BME280;43298;52.560;13.508;2023-02-20T06:56:22;101019.38;;;5.64;100.00
13734;BME280;43298;52.560;13.508;2023-02-20T06:58:50;101011.72;;;5.63;100.00
13734;BME280;43298;52.560;13.508;2023-02-20T07:01:18;101017.59;;;5.69;100.00
13734;BME280;43298;52.560;13.508;2023-02-20T07:03:46;101015.00;;;5.71;100.00
13734;BME280;43298;52.560;13.508;2023-02-20T07:06:14;101010.66;;;5.74;100.00
13734;BME280;43298;52.560;13.508;2023-02-20T07:08:39;101007.22;;;5.77;100.00
13734;BME280;43298;52.560;13.508;2023-02-20T07:11:05;100985.59;;;5.90;100.00
13734;BME280;43298;52.560;13.508;2023-02-20T07:13:31;100977.75;;;5.97;100.00
13734;BME280;43298;52.560;13.508;2023-02-20T07:15:57;100951.06;;;6.06;100.00
13734;BME280;43298;52.560;13.508;2023-02-20T07:18:23;100981.00;;;6.07;100.00
13734;BME280;43298;52.560;13.508;2023-02-20T07:20:50;100970.59;;;6.14;100.00
13734;BME280;43298;52.560;13.508;2023-02-20T07:23:16;100974.75;;;6.20;100.00
13734;BME280;43298;52.560;13.508;2023-02-20T07:25:43;100966.97;;;6.23;100.00
13734;BME280;43298;52.560;13.508;2023-02-20T07:28:09;100957.56;;;6.22;100.00
13734;BME280;43298;52.560;13.508;2023-02-20T07:30:35;100965.13;;;6.30;100.00
13734;BME280;43298;52.560;13.508;2023-02-20T07:33:00;100974.44;;;6.35;100.00
13734;BME280;43298;52.560;13.508;2023-02-20T07:35:26;100964.03;;;6.41;100.00
13734;BME280;43298;52.560;13.508;2023-02-20T07:37:52;100973.28;;;6.48;100.00
13734;BME280;43298;52.560;13.508;2023-02-20T07:40:18;100969.81;;;6.51;100.00
13734;BME280;43298;52.560;13.508;2023-02-20T07:42:44;100946.53;;;6.58;100.00
13734;BME280;43298;52.560;13.508;2023-02-20T07:45:11;100938.78;;;6.60;100.00
13734;BME280;43298;52.560;13.508;2023-02-20T07:47:37;100944.56;;;6.69;100.00
13734;BME280;43298;52.560;13.508;2023-02-20T07:50:03;100931.66;;;6.71;100.00
13734;BME280;43298;52.560;13.508;2023-02-20T07:52:29;100924.84;;;6.70;100.00
13734;BME280;43298;52.560;13.508;2023-02-20T07:54:55;100913.59;;;6.75;100.00
13734;BME280;43298;52.560;13.508;2023-02-20T07:57:21;100928.06;;;6.79;100.00
13734;BME280;43298;52.560;13.508;2023-02-20T07:59:47;100937.41;;;6.82;100.00
13734;BME280;43298;52.560;13.508;2023-02-20T08:02:12;100949.28;;;6.87;100.00
13734;BME280;43298;52.560;13.508;2023-02-20T08:04:38;100917.50;;;6.91;100.00
13734;BME280;43298;52.560;13.508;2023-02-20T08:07:04;100900.94;;;7.01;100.00
13734;BME280;43298;52.560;13.508;2023-02-20T08:09:31;100899.19;;;7.03;100.00
13734;BME280;43298;52.560;13.508;2023-02-20T08:11:57;100918.09;;;7.02;100.00
13734;BME280;43298;52.560;13.508;2023-02-20T08:14:23;100894.63;;;7.14;100.00
13734;BME280;43298;52.560;13.508;2023-02-20T08:16:49;100897.09;;;7.19;100.00
13734;BME280;43298;52.560;13.508;2023-02-20T08:19:15;100884.25;;;7.19;100.00
13734;BME280;43298;52.560;13.508;2023-02-20T08:21:41;100873.84;;;7.23;100.00
13734;BME280;43298;52.560;13.508;2023-02-20T08:24:07;100879.72;;;7.27;100.00
13734;BME280;43298;52.560;13.508;2023-02-20T08:26:32;100870.03;;;7.36;100.00
13734;BME280;43298;52.560;13.508;2023-02-20T08:29:01;100873.41;;;7.40;100.00
13734;BME280;43298;52.560;13.508;2023-02-20T08:31:27;100866.53;;;7.39;100.00
13734;BME280;43298;52.560;13.508;2023-02-20T08:33:53;100863.06;;;7.41;100.00
13734;BME280;43298;52.560;13.508;2023-02-20T08:36:19;100858.91;;;7.37;100.00
13734;BME280;43298;52.560;13.508;2023-02-20T08:38:44;100866.53;;;7.39;100.00
13734;BME280;43298;52.560;13.508;2023-02-20T08:41:12;100850.84;;;7.49;100.00
13734;BME280;43298;52.560;13.508;2023-02-20T08:43:39;100858.63;;;7.46;100.00
13734;BME280;43298;52.560;13.508;2023-02-20T08:46:06;100841.09;;;7.60;100.00
13734;BME280;43298;52.560;13.508;2023-02-20T08:48:33;100836.84;;;7.59;100.00
13734;BME280;43298;52.560;13.508;2023-02-20T08:50:59;100828.25;;;7.59;100.00
13734;BME280;43298;52.560;13.508;2023-02-20T08:53:25;100827.97;;;7.69;100.00
13734;BME280;43298;52.560;13.508;2023-02-20T08:55:50;100840.88;;;7.68;100.00
13734;BME280;43298;52.560;13.508;2023-02-20T08:58:21;100821.84;;;7.73;100.00
13734;BME280;43298;52.560;13.508;2023-02-20T09:00:48;100819.81;;;7.84;100.00
13734;BME280;43298;52.560;13.508;2023-02-20T09:03:14;100812.94;;;7.83;100.00
13734;BME280;43298;52.560;13.508;2023-02-20T09:05:41;100806.00;;;7.87;100.00
13734;BME280;43298;52.560;13.508;2023-02-20T09:08:08;100801.50;;;7.93;100.00
13734;BME280;43298;52.560;13.508;2023-02-20T09:10:34;100798.78;;;7.98;100.00
13734;BME280;43298;52.560;13.508;2023-02-20T09:13:00;100785.78;;;8.02;100.00
13734;BME280;43298;52.560;13.508;2023-02-20T09:15:26;100806.19;;;8.08;100.00
13734;BME280;43298;52.560;13.508;2023-02-20T09:17:53;100786.25;;;8.15;100.00
13734;BME280;43298;52.560;13.508;2023-02-20T09:20:21;100785.22;;;8.22;100.00
13734;BME280;43298;52.560;13.508;2023-02-20T09:22:48;100775.63;;;8.25;100.00
13734;BME280;43298;52.560;13.508;2023-02-20T09:25:16;100772.91;;;8.30;100.00
13734;BME280;43298;52.560;13.508;2023-02-20T09:27:42;100763.16;;;8.39;100.00
13734;BME280;43298;52.560;13.508;2023-02-20T09:30:09;100765.44;;;8.48;100.00
13734;BME280;43298;52.560;13.508;2023-02-20T09:32:36;100772.97;;;8.54;100.00
13734;BME280;43298;52.560;13.508;2023-02-20T09:35:03;100752.34;;;8.54;100.00
13734;BME280;43298;52.560;13.508;2023-02-20T09:37:28;100747.13;;;8.56;100.00
13734;BME280;43298;52.560;13.508;2023-02-20T09:39:54;100749.47;;;8.63;100.00
13734;BME280;43298;52.560;13.508;2023-02-20T09:45:15;100745.75;;;8.72;100.00
13734;BME280;43298;52.560;13.508;2023-02-20T09:54:18;100709.88;;;8.90;100.00
13734;BME280;43298;52.560;13.508;2023-02-20T09:56:40;100723.59;;;8.91;100.00
13734;BME280;43298;52.560;13.508;2023-02-20T09:59:34;100729.19;;;9.02;100.00
13734;BME280;43298;52.560;13.508;2023-02-20T10:02:19;100723.69;;;9.12;100.00
13734;BME280;43298;52.560;13.508;2023-02-20T10:04:50;100731.88;;;9.23;100.00
13734;BME280;43298;52.560;13.508;2023-02-20T10:07:35;100730.97;;;9.24;100.00
13734;BME280;43298;52.560;13.508;2023-02-20T10:21:28;100712.13;;;9.23;100.00
13734;BME280;43298;52.560;13.508;2023-02-20T10:26:43;100710.53;;;9.18;100.00
13734;BME280;43298;52.560;13.508;2023-02-20T10:29:19;100702.53;;;9.26;100.00
13734;BME280;43298;52.560;13.508;2023-02-20T10:32:02;100695.28;;;9.36;100.00
13734;BME280;43298;52.560;13.508;2023-02-20T10:34:48;100683.84;;;9.43;100.00
13734;BME280;43298;52.560;13.508;2023-02-20T10:37:20;100687.97;;;9.47;100.00
13734;BME280;43298;52.560;13.508;2023-02-20T10:39:55;100686.69;;;9.58;100.00
13734;BME280;43298;52.560;13.508;2023-02-20T10:42:36;100691.72;;;9.61;100.00
13734;BME280;43298;52.560;13.508;2023-02-20T10:45:13;100692.28;;;9.69;100.00
13734;BME280;43298;52.560;13.508;2023-02-20T10:48:08;100694.50;;;9.78;100.00
13734;BME280;43298;52.560;13.508;2023-02-20T10:56:37;100663.22;;;10.07;100.00
13734;BME280;43298;52.560;13.508;2023-02-20T10:59:12;100670.78;;;9.90;100.00
13734;BME280;43298;52.560;13.508;2023-02-20T11:01:43;100665.38;;;9.96;100.00
13734;BME280;43298;52.560;13.508;2023-02-20T11:04:20;100662.31;;;10.08;100.00
13734;BME280;43298;52.560;13.508;2023-02-20T11:07:00;100649.59;;;10.24;100.00
13734;BME280;43298;52.560;13.508;2023-02-20T11:09:27;100664.25;;;10.23;100.00
13734;BME280;43298;52.560;13.508;2023-02-20T11:11:54;100643.47;;;10.06;100.00
13734;BME280;43298;52.560;13.508;2023-02-20T11:14:32;100649.09;;;9.94;100.00
13734;BME280;43298;52.560;13.508;2023-02-20T11:17:12;100658.72;;;9.91;100.00
13734;BME280;43298;52.560;13.508;2023-02-20T11:19:51;100649.09;;;9.94;100.00
13734;BME280;43298;52.560;13.508;2023-02-20T11:25:28;100651.59;;;9.96;100.00
13734;BME280;43298;52.560;13.508;2023-02-20T11:28:07;100660.19;;;9.96;100.00
13734;BME280;43298;52.560;13.508;2023-02-20T11:30:41;100654.13;;;9.97;100.00
13734;BME280;43298;52.560;13.508;2023-02-20T11:33:22;100659.94;;;10.02;100.00
13734;BME280;43298;52.560;13.508;2023-02-20T11:35:55;100639.16;;;10.05;100.00
13734;BME280;43298;52.560;13.508;2023-02-20T11:41:27;100646.75;;;10.10;100.00
13734;BME280;43298;52.560;13.508;2023-02-20T11:44:24;100637.22;;;10.12;100.00
13734;BME280;43298;52.560;13.508;2023-02-20T11:47:21;100638.09;;;10.11;100.00
13734;BME280;43298;52.560;13.508;2023-02-20T11:49:48;100627.44;;;10.18;100.00
13734;BME280;43298;52.560;13.508;2023-02-20T11:52:21;100626.66;;;10.16;100.00
13734;BME280;43298;52.560;13.508;2023-02-20T11:55:19;100620.66;;;10.16;100.00
13734;BME280;43298;52.560;13.508;2023-02-20T11:57:47;100623.19;;;10.17;100.00
13734;BME280;43298;52.560;13.508;2023-02-20T12:03:13;100601.72;;;10.15;100.00
13734;BME280;43298;52.560;13.508;2023-02-20T12:05:45;100616.31;;;10.16;100.00
13734;BME280;43298;52.560;13.508;2023-02-20T12:11:08;100621.72;;;10.12;100.00
13734;BME280;43298;52.560;13.508;2023-02-20T12:13:47;100621.63;;;10.13;100.00
13734;BME280;43298;52.560;13.508;2023-02-20T12:16:45;100614.78;;;10.12;100.00
13734;BME280;43298;52.560;13.508;2023-02-20T12:22:33;100612.63;;;10.22;100.00
13734;BME280;43298;52.560;13.508;2023-02-20T12:25:23;100619.56;;;10.21;100.00
13734;BME280;43298;52.560;13.508;2023-02-20T12:28:15;100604.88;;;10.22;100.00
13734;BME280;43298;52.560;13.508;2023-02-20T12:36:51;100599.88;;;10.19;100.00
13734;BME280;43298;52.560;13.508;2023-02-20T12:39:24;100593.72;;;10.21;100.00
13734;BME280;43298;52.560;13.508;2023-02-20T12:45:11;100597.00;;;10.25;100.00
13734;BME280;43298;52.560;13.508;2023-02-20T12:47:38;100596.69;;;10.32;100.00
13734;BME280;43298;52.560;13.508;2023-02-20T13:01:45;100595.66;;;10.16;100.00
13734;BME280;43298;52.560;13.508;2023-02-20T13:04:41;100603.63;;;10.12;100.00
13734;BME280;43298;52.560;13.508;2023-02-20T13:07:23;100602.91;;;10.08;100.00
13734;BME280;43298;52.560;13.508;2023-02-20T13:10:03;100590.81;;;10.09;100.00
13734;BME280;43298;52.560;13.508;2023-02-20T13:12:31;100601.31;;;10.04;100.00
13734;BME280;43298;52.560;13.508;2023-02-20T13:15:12;100596.19;;;10.03;100.00
13734;BME280;43298;52.560;13.508;2023-02-20T13:20:39;100596.72;;;9.91;100.00
13734;BME280;43298;52.560;13.508;2023-02-20T13:25:47;100590.88;;;9.66;100.00
13734;BME280;43298;52.560;13.508;2023-02-20T13:33:41;100586.19;;;9.54;100.00
13734;BME280;43298;52.560;13.508;2023-02-20T14:06:25;100587.94;;;9.32;100.00
13734;BME280;43298;52.560;13.508;2023-02-20T14:09:10;100599.00;;;9.35;100.00
13734;BME280;43298;52.560;13.508;2023-02-20T14:11:40;100592.19;;;9.32;100.00
13734;BME280;43298;52.560;13.508;2023-02-20T14:14:22;100588.78;;;9.32;100.00
13734;BME280;43298;52.560;13.508;2023-02-20T14:16:50;100586.19;;;9.32;100.00
13734;BME280;43298;52.560;13.508;2023-02-20T14:19:25;100599.16;;;9.31;100.00
13734;BME280;43298;52.560;13.508;2023-02-20T14:21:51;100571.59;;;9.31;100.00
13734;BME280;43298;52.560;13.508;2023-02-20T14:24:20;100595.63;;;9.33;100.00
13734;BME280;43298;52.560;13.508;2023-02-20T14:26:47;100589.50;;;9.36;100.00
13734;BME280;43298;52.560;13.508;2023-02-20T14:29:32;100586.09;;;9.35;100.00
13734;BME280;43298;52.560;13.508;2023-02-20T14:32:01;100592.75;;;9.41;100.00
13734;BME280;43298;52.560;13.508;2023-02-20T14:40:17;100594.38;;;9.43;100.00
13734;BME280;43298;52.560;13.508;2023-02-20T14:42:48;100600.44;;;9.42;100.00
13734;BME280;43298;52.560;13.508;2023-02-20T14:45:25;100579.41;;;9.51;100.00
13734;BME280;43298;52.560;13.508;2023-02-20T14:47:59;100582.84;;;9.52;100.00
13734;BME280;43298;52.560;13.508;2023-02-20T14:50:34;100579.22;;;9.56;100.00
13734;BME280;43298;52.560;13.508;2023-02-20T14:53:08;100584.44;;;9.54;100.00
13734;BME280;43298;52.560;13.508;2023-02-20T14:55:36;100584.28;;;9.59;100.00
13734;BME280;43298;52.560;13.508;2023-02-20T14:58:28;100568.72;;;9.60;100.00
13734;BME280;43298;52.560;13.508;2023-02-20T15:00:59;100569.44;;;9.64;100.00
13734;BME280;43298;52.560;13.508;2023-02-20T15:03:28;100569.31;;;9.67;100.00
13734;BME280;43298;52.560;13.508;2023-02-20T15:06:02;100564.91;;;9.69;100.00
13734;BME280;43298;52.560;13.508;2023-02-20T15:08:33;100567.50;;;9.69;100.00
13734;BME280;43298;52.560;13.508;2023-02-20T15:11:12;100564.03;;;9.70;100.00
13734;BME280;43298;52.560;13.508;2023-02-20T15:13:44;100567.19;;;9.76;100.00
13734;BME280;43298;52.560;13.508;2023-02-20T15:18:42;100569.81;;;9.75;100.00